sensor_id;sensor_type;location;lat;lon;timestamp;temperature;humidity
2571;DHT22;1295;51.130;6.732;2023-02-12T00:02:24;7.20;99.90
2571;DHT22;1295;51.130;6.732;2023-02-12T00:04:50;7.20;99.90
2571;DHT22;1295;51.130;6.732;2023-02-12T00:07:15;7.20;99.90
2571;DHT22;1295;51.130;6.732;2023-02-12T00:09:42;7.20;99.90
2571;DHT22;1295;51.130;6.732;2023-02-12T00:12:07;7.20;99.90
2571;DHT22;1295;51.130;6.732;2023-02-12T00:14:33;7.20;99.90
2571;DHT22;1295;51.130;6.732;2023-02-12T00:16:58;7.20;99.90
2571;DHT22;1295;51.130;6.732;2023-02-12T00:19:24;7.20;99.90
2571;DHT22;1295;51.130;6.732;2023-02-12T00:21:56;7.20;99.90
2571;DHT22;1295;51.130;6.732;2023-02-12T00:24:23;7.20;99.90
2571;DHT22;1295;51.130;6.732;2023-02-12T00:26:49;7.20;99.90
2571;DHT22;1295;51.130;6.732;2023-02-12T00:29:21;7.20;99.90
2571;DHT22;1295;51.130;6.732;2023-02-12T00:31:47;7.20;99.90
2571;DHT22;1295;51.130;6.732;2023-02-12T00:34:12;7.20;99.90
2571;DHT22;1295;51.130;6.732;2023-02-12T00:36:38;7.20;99.90
2571;DHT22;1295;51.130;6.732;2023-02-12T00:39:04;7.20;99.90
2571;DHT22;1295;51.130;6.732;2023-02-12T00:41:29;7.20;99.90
2571;DHT22;1295;51.130;6.732;2023-02-12T00:43:55;7.20;99.90
2571;DHT22;1295;51.130;6.732;2023-02-12T00:46:21;7.20;99.90
2571;DHT22;1295;51.130;6.732;2023-02-12T00:48:46;7.20;99.90
2571;DHT22;1295;51.130;6.732;2023-02-12T00:51:12;7.20;99.90
2571;DHT22;1295;51.130;6.732;2023-02-12T00:53:37;7.20;99.90
2571;DHT22;1295;51.130;6.732;2023-02-12T00:56:04;7.20;99.90
2571;DHT22;1295;51.130;6.732;2023-02-12T00:58:30;7.20;99.90
2571;DHT22;1295;51.130;6.732;2023-02-12T01:00:55;7.20;99.90
2571;DHT22;1295;51.130;6.732;2023-02-12T01:03:21;7.20;99.90
2571;DHT22;1295;51.130;6.732;2023-02-12T01:05:46;7.20;99.90
2571;DHT22;1295;51.130;6.732;2023-02-12T01:08:13;7.20;99.90
2571;DHT22;1295;51.130;6.732;2023-02-12T01:10:39;7.20;99.90
2571;DHT22;1295;51.130;6.732;2023-02-12T01:13:04;7.20;99.90
2571;DHT22;1295;51.130;6.732;2023-02-12T01:15:30;7.20;99.90
2571;DHT22;1295;51.130;6.732;2023-02-12T01:17:55;7.20;99.90
2571;DHT22;1295;51.130;6.732;2023-02-12T01:20:23;7.20;99.90
2571;DHT22;1295;51.130;6.732;2023-02-12T01:22:48;7.20;99.90
2571;DHT22;1295;51.130;6.732;2023-02-12T01:25:13;7.20;99.90
2571;DHT22;1295;51.130;6.732;2023-02-12T01:27:39;7.20;99.90
2571;DHT22;1295;51.130;6.732;2023-02-12T01:30:06;7.20;99.90
2571;DHT22;1295;51.130;6.732;2023-02-12T01:32:31;7.20;99.90
2571;DHT22;1295;51.130;6.732;2023-02-12T01:34:57;7.20;99.90
2571;DHT22;1295;51.130;6.732;2023-02-12T01:37:23;7.20;99.90
2571;DHT22;1295;51.130;6.732;2023-02-12T01:39:48;7.20;99.90
2571;DHT22;1295;51.130;6.732;2023-02-12T01:42:14;7.20;99.90
2571;DHT22;1295;51.130;6.732;2023-02-12T01:44:45;7.20;99.90
2571;DHT22;1295;51.130;6.732;2023-02-12T01:47:16;7.10;99.90
2571;DHT22;1295;51.130;6.732;2023-02-12T01:49:42;7.20;99.90
2571;DHT22;1295;51.130;6.732;2023-02-12T01:52:17;7.20;99.90
2571;DHT22;1295;51.130;6.732;2023-02-12T01:54:41;7.20;99.90
2571;DHT22;1295;51.130;6.732;2023-02-12T01:57:07;7.20;99.90
2571;DHT22;1295;51.130;6.732;2023-02-12T01:59:34;7.20;99.90
2571;DHT22;1295;51.130;6.732;2023-02-12T02:01:59;7.20;99.90
2571;DHT22;1295;51.130;6.732;2023-02-12T02:04:26;7.20;99.90
2571;DHT22;1295;51.130;6.732;2023-02-12T02:06:56;7.20;99.90
2571;DHT22;1295;51.130;6.732;2023-02-12T02:09:20;7.20;99.90
2571;DHT22;1295;51.130;6.732;2023-02-12T02:11:46;7.20;99.90
2571;DHT22;1295;51.130;6.732;2023-02-12T02:14:19;7.10;99.90
2571;DHT22;1295;51.130;6.732;2023-02-12T02:17:05;7.10;99.90
2571;DHT22;1295;51.130;6.732;2023-02-12T02:19:37;7.10;99.90
2571;DHT22;1295;51.130;6.732;2023-02-12T02:22:16;7.10;99.90
2571;DHT22;1295;51.130;6.732;2023-02-12T02:24:52;7.10;99.90
2571;DHT22;1295;51.130;6.732;2023-02-12T02:27:19;7.20;99.90
2571;DHT22;1295;51.130;6.732;2023-02-12T02:30:22;7.10;99.90
2571;DHT22;1295;51.130;6.732;2023-02-12T02:33:07;7.10;99.90
2571;DHT22;1295;51.130;6.732;2023-02-12T02:35:37;7.20;99.90
2571;DHT22;1295;51.130;6.732;2023-02-12T02:38:17;7.10;99.90
2571;DHT22;1295;51.130;6.732;2023-02-12T02:40:40;7.10;99.90
2571;DHT22;1295;51.130;6.732;2023-02-12T02:43:12;7.10;99.90
2571;DHT22;1295;51.130;6.732;2023-02-12T02:45:46;7.10;99.90
2571;DHT22;1295;51.130;6.732;2023-02-12T02:48:13;7.00;99.90
2571;DHT22;1295;51.130;6.732;2023-02-12T02:50:45;7.00;99.90
2571;DHT22;1295;51.130;6.732;2023-02-12T02:53:14;7.00;99.90
2571;DHT22;1295;51.130;6.732;2023-02-12T02:55:42;7.00;99.90
2571;DHT22;1295;51.130;6.732;2023-02-12T02:58:08;7.10;99.90
2571;DHT22;1295;51.130;6.732;2023-02-12T03:00:43;7.10;99.90
2571;DHT22;1295;51.130;6.732;2023-02-12T03:05:49;7.00;99.90
2571;DHT22;1295;51.130;6.732;2023-02-12T03:08:18;7.00;99.90
2571;DHT22;1295;51.130;6.732;2023-02-12T03:10:44;7.10;99.90
2571;DHT22;1295;51.130;6.732;2023-02-12T03:13:10;7.10;99.90
2571;DHT22;1295;51.130;6.732;2023-02-12T03:15:48;7.10;99.90
2571;DHT22;1295;51.130;6.732;2023-02-12T03:18:14;7.10;99.90
2571;DHT22;1295;51.130;6.732;2023-02-12T03:20:42;7.10;99.90
2571;DHT22;1295;51.130;6.732;2023-02-12T03:23:09;7.10;99.90
2571;DHT22;1295;51.130;6.732;2023-02-12T03:25:45;7.10;99.90
2571;DHT22;1295;51.130;6.732;2023-02-12T03:28:10;7.00;99.90
2571;DHT22;1295;51.130;6.732;2023-02-12T03:30:38;7.00;99.90
2571;DHT22;1295;51.130;6.732;2023-02-12T03:33:12;7.00;99.90
2571;DHT22;1295;51.130;6.732;2023-02-12T03:35:37;7.10;99.90
2571;DHT22;1295;51.130;6.732;2023-02-12T03:38:05;7.10;99.90
2571;DHT22;1295;51.130;6.732;2023-02-12T03:40:41;7.10;99.90
2571;DHT22;1295;51.130;6.732;2023-02-12T03:43:08;7.10;99.90
2571;DHT22;1295;51.130;6.732;2023-02-12T03:45:44;7.10;99.90
2571;DHT22;1295;51.130;6.732;2023-02-12T03:48:26;7.10;99.90
2571;DHT22;1295;51.130;6.732;2023-02-12T03:51:14;7.10;99.90
2571;DHT22;1295;51.130;6.732;2023-02-12T03:53:35;7.10;99.90
2571;DHT22;1295;51.130;6.732;2023-02-12T03:56:03;7.10;99.90
2571;DHT22;1295;51.130;6.732;2023-02-12T03:58:28;7.10;99.90
2571;DHT22;1295;51.130;6.732;2023-02-12T04:00:53;7.10;99.90
2571;DHT22;1295;51.130;6.732;2023-02-12T04:03:19;7.10;99.90
2571;DHT22;1295;51.130;6.732;2023-02-12T04:05:44;7.10;99.90
2571;DHT22;1295;51.130;6.732;2023-02-12T04:08:10;7.10;99.90
2571;DHT22;1295;51.130;6.732;2023-02-12T04:10:41;7.10;99.90
2571;DHT22;1295;51.130;6.732;2023-02-12T04:13:17;7.10;99.90
2571;DHT22;1295;51.130;6.732;2023-02-12T04:15:57;7.10;99.90
2571;DHT22;1295;51.130;6.732;2023-02-12T04:18:26;7.10;99.90
2571;DHT22;1295;51.130;6.732;2023-02-12T04:20:55;7.20;99.90
2571;DHT22;1295;51.130;6.732;2023-02-12T04:23:41;7.10;99.90
2571;DHT22;1295;51.130;6.732;2023-02-12T04:26:08;7.10;99.90
2571;DHT22;1295;51.130;6.732;2023-02-12T04:28:51;7.10;99.90
2571;DHT22;1295;51.130;6.732;2023-02-12T04:31:32;7.00;99.90
2571;DHT22;1295;51.130;6.732;2023-02-12T04:34:06;7.00;99.90
2571;DHT22;1295;51.130;6.732;2023-02-12T04:36:32;7.10;99.90
2571;DHT22;1295;51.130;6.732;2023-02-12T04:38:57;7.10;99.90
2571;DHT22;1295;51.130;6.732;2023-02-12T04:41:22;7.10;99.90
2571;DHT22;1295;51.130;6.732;2023-02-12T04:43:47;7.10;99.90
2571;DHT22;1295;51.130;6.732;2023-02-12T04:46:13;7.10;99.90
2571;DHT22;1295;51.130;6.732;2023-02-12T04:51:14;7.10;99.90
2571;DHT22;1295;51.130;6.732;2023-02-12T04:53:40;7.10;99.90
2571;DHT22;1295;51.130;6.732;2023-02-12T04:56:07;7.10;99.90
2571;DHT22;1295;51.130;6.732;2023-02-12T04:58:32;7.10;99.90
2571;DHT22;1295;51.130;6.732;2023-02-12T05:00:58;7.10;99.90
2571;DHT22;1295;51.130;6.732;2023-02-12T05:03:24;6.80;99.90
2571;DHT22;1295;51.130;6.732;2023-02-12T05:05:50;6.80;99.90
2571;DHT22;1295;51.130;6.732;2023-02-12T05:08:16;6.60;99.90
2571;DHT22;1295;51.130;6.732;2023-02-12T05:10:48;6.70;99.90
2571;DHT22;1295;51.130;6.732;2023-02-12T05:13:14;6.90;99.90
2571;DHT22;1295;51.130;6.732;2023-02-12T05:15:40;6.90;99.90
2571;DHT22;1295;51.130;6.732;2023-02-12T05:18:06;7.00;99.90
2571;DHT22;1295;51.130;6.732;2023-02-12T05:20:31;7.00;99.90
2571;DHT22;1295;51.130;6.732;2023-02-12T05:22:57;6.90;99.90
2571;DHT22;1295;51.130;6.732;2023-02-12T05:25:23;7.00;99.90
2571;DHT22;1295;51.130;6.732;2023-02-12T05:27:48;7.00;99.90
2571;DHT22;1295;51.130;6.732;2023-02-12T05:30:14;7.10;99.90
2571;DHT22;1295;51.130;6.732;2023-02-12T05:32:40;7.00;99.90
2571;DHT22;1295;51.130;6.732;2023-02-12T05:35:06;7.00;99.90
2571;DHT22;1295;51.130;6.732;2023-02-12T05:37:34;6.90;99.90
2571;DHT22;1295;51.130;6.732;2023-02-12T05:39:58;6.90;99.90
2571;DHT22;1295;51.130;6.732;2023-02-12T05:42:25;6.90;99.90
2571;DHT22;1295;51.130;6.732;2023-02-12T05:44:50;6.90;99.90
2571;DHT22;1295;51.130;6.732;2023-02-12T05:47:16;6.70;99.90
2571;DHT22;1295;51.130;6.732;2023-02-12T05:49:41;6.70;99.90
2571;DHT22;1295;51.130;6.732;2023-02-12T05:52:07;6.80;99.90
2571;DHT22;1295;51.130;6.732;2023-02-12T05:54:33;6.90;99.90
2571;DHT22;1295;51.130;6.732;2023-02-12T05:56:58;7.00;99.90
2571;DHT22;1295;51.130;6.732;2023-02-12T05:59:24;7.00;99.90
2571;DHT22;1295;51.130;6.732;2023-02-12T06:01:50;7.10;99.90
2571;DHT22;1295;51.130;6.732;2023-02-12T06:04:17;7.10;99.90
2571;DHT22;1295;51.130;6.732;2023-02-12T06:06:42;7.10;99.90
2571;DHT22;1295;51.130;6.732;2023-02-12T06:09:08;7.10;99.90
2571;DHT22;1295;51.130;6.732;2023-02-12T06:11:33;7.10;99.90
2571;DHT22;1295;51.130;6.732;2023-02-12T06:14:03;7.10;99.90
2571;DHT22;1295;51.130;6.732;2023-02-12T06:16:28;7.10;99.90
2571;DHT22;1295;51.130;6.732;2023-02-12T06:18:54;7.10;99.90
2571;DHT22;1295;51.130;6.732;2023-02-12T06:21:20;7.10;99.90
2571;DHT22;1295;51.130;6.732;2023-02-12T06:23:46;7.10;99.90
2571;DHT22;1295;51.130;6.732;2023-02-12T06:26:12;7.10;99.90
2571;DHT22;1295;51.130;6.732;2023-02-12T06:28:42;7.10;99.90
2571;DHT22;1295;51.130;6.732;2023-02-12T06:31:22;7.10;99.90
2571;DHT22;1295;51.130;6.732;2023-02-12T06:33:47;7.10;99.90
2571;DHT22;1295;51.130;6.732;2023-02-12T06:36:12;7.10;99.90
2571;DHT22;1295;51.130;6.732;2023-02-12T06:38:38;7.10;99.90
2571;DHT22;1295;51.130;6.732;2023-02-12T06:41:04;7.10;99.90
2571;DHT22;1295;51.130;6.732;2023-02-12T06:43:30;7.10;99.90
2571;DHT22;1295;51.130;6.732;2023-02-12T06:45:59;7.10;99.90
2571;DHT22;1295;51.130;6.732;2023-02-12T06:48:22;7.10;99.90
2571;DHT22;1295;51.130;6.732;2023-02-12T06:50:47;7.10;99.90
2571;DHT22;1295;51.130;6.732;2023-02-12T06:53:13;7.10;99.90
2571;DHT22;1295;51.130;6.732;2023-02-12T06:55:38;7.10;99.90
2571;DHT22;1295;51.130;6.732;2023-02-12T06:58:04;7.10;99.90
2571;DHT22;1295;51.130;6.732;2023-02-12T07:00:30;7.10;99.90
2571;DHT22;1295;51.130;6.732;2023-02-12T07:02:56;7.10;99.90
2571;DHT22;1295;51.130;6.732;2023-02-12T07:05:22;7.10;99.90
2571;DHT22;1295;51.130;6.732;2023-02-12T07:07:47;7.10;99.90
2571;DHT22;1295;51.130;6.732;2023-02-12T07:10:14;7.10;99.90
2571;DHT22;1295;51.130;6.732;2023-02-12T07:12:39;7.10;99.90
2571;DHT22;1295;51.130;6.732;2023-02-12T07:15:06;7.10;99.90
2571;DHT22;1295;51.130;6.732;2023-02-12T07:17:32;7.10;99.90
2571;DHT22;1295;51.130;6.732;2023-02-12T07:19:58;7.10;99.90
2571;DHT22;1295;51.130;6.732;2023-02-12T07:22:24;7.10;99.90
2571;DHT22;1295;51.130;6.732;2023-02-12T07:24:49;7.10;99.90
2571;DHT22;1295;51.130;6.732;2023-02-12T07:27:15;7.10;99.90
2571;DHT22;1295;51.130;6.732;2023-02-12T07:29:41;7.10;99.90
2571;DHT22;1295;51.130;6.732;2023-02-12T07:32:13;7.10;99.90
2571;DHT22;1295;51.130;6.732;2023-02-12T07:34:38;7.10;99.90
2571;DHT22;1295;51.130;6.732;2023-02-12T07:37:04;7.10;99.90
2571;DHT22;1295;51.130;6.732;2023-02-12T07:39:30;7.00;99.90
2571;DHT22;1295;51.130;6.732;2023-02-12T07:41:55;7.00;99.90
2571;DHT22;1295;51.130;6.732;2023-02-12T07:44:21;7.00;99.90
2571;DHT22;1295;51.130;6.732;2023-02-12T07:46:47;7.10;99.90
2571;DHT22;1295;51.130;6.732;2023-02-12T07:49:16;7.10;99.90
2571;DHT22;1295;51.130;6.732;2023-02-12T07:51:41;7.10;99.90
2571;DHT22;1295;51.130;6.732;2023-02-12T07:54:07;7.10;99.90
2571;DHT22;1295;51.130;6.732;2023-02-12T07:56:33;7.00;99.90
2571;DHT22;1295;51.130;6.732;2023-02-12T07:58:59;7.10;99.90
2571;DHT22;1295;51.130;6.732;2023-02-12T08:01:27;7.10;99.90
2571;DHT22;1295;51.130;6.732;2023-02-12T08:03:51;7.10;99.90
2571;DHT22;1295;51.130;6.732;2023-02-12T08:06:18;7.10;99.90
2571;DHT22;1295;51.130;6.732;2023-02-12T08:08:44;7.10;99.90
2571;DHT22;1295;51.130;6.732;2023-02-12T08:11:10;7.10;99.90
2571;DHT22;1295;51.130;6.732;2023-02-12T08:13:35;7.10;99.90
2571;DHT22;1295;51.130;6.732;2023-02-12T08:16:01;7.10;99.90
2571;DHT22;1295;51.130;6.732;2023-02-12T08:18:26;7.10;99.90
2571;DHT22;1295;51.130;6.732;2023-02-12T08:20:51;7.10;99.90
2571;DHT22;1295;51.130;6.732;2023-02-12T08:23:17;7.10;99.90
2571;DHT22;1295;51.130;6.732;2023-02-12T08:25:43;7.10;99.90
2571;DHT22;1295;51.130;6.732;2023-02-12T08:28:08;7.10;99.90
2571;DHT22;1295;51.130;6.732;2023-02-12T08:30:34;7.10;99.90
2571;DHT22;1295;51.130;6.732;2023-02-12T08:33:00;7.10;99.90
2571;DHT22;1295;51.130;6.732;2023-02-12T08:35:25;7.10;99.90
2571;DHT22;1295;51.130;6.732;2023-02-12T08:37:51;7.10;99.90
2571;DHT22;1295;51.130;6.732;2023-02-12T08:40:17;7.10;99.90
2571;DHT22;1295;51.130;6.732;2023-02-12T08:42:43;7.10;99.90
2571;DHT22;1295;51.130;6.732;2023-02-12T08:45:09;7.10;99.90
2571;DHT22;1295;51.130;6.732;2023-02-12T08:47:35;7.10;99.90
2571;DHT22;1295;51.130;6.732;2023-02-12T08:50:01;7.10;99.90
2571;DHT22;1295;51.130;6.732;2023-02-12T08:52:26;7.10;99.90
2571;DHT22;1295;51.130;6.732;2023-02-12T08:54:52;7.10;99.90
2571;DHT22;1295;51.130;6.732;2023-02-12T08:57:18;7.10;99.90
2571;DHT22;1295;51.130;6.732;2023-02-12T08:59:43;7.10;99.90
2571;DHT22;1295;51.130;6.732;2023-02-12T09:02:10;7.10;99.90
2571;DHT22;1295;51.130;6.732;2023-02-12T09:04:35;7.10;99.90
2571;DHT22;1295;51.130;6.732;2023-02-12T09:07:01;7.20;99.90
2571;DHT22;1295;51.130;6.732;2023-02-12T09:09:27;7.10;99.90
2571;DHT22;1295;51.130;6.732;2023-02-12T09:11:52;7.00;99.90
2571;DHT22;1295;51.130;6.732;2023-02-12T09:14:19;7.10;99.90
2571;DHT22;1295;51.130;6.732;2023-02-12T09:16:46;7.10;99.90
2571;DHT22;1295;51.130;6.732;2023-02-12T09:19:12;7.10;99.90
2571;DHT22;1295;51.130;6.732;2023-02-12T09:21:38;7.20;99.90
2571;DHT22;1295;51.130;6.732;2023-02-12T09:24:03;7.30;99.90
2571;DHT22;1295;51.130;6.732;2023-02-12T09:26:29;7.20;99.90
2571;DHT22;1295;51.130;6.732;2023-02-12T09:28:55;7.10;99.90
2571;DHT22;1295;51.130;6.732;2023-02-12T09:31:22;7.10;99.90
2571;DHT22;1295;51.130;6.732;2023-02-12T09:33:46;7.20;99.90
2571;DHT22;1295;51.130;6.732;2023-02-12T09:36:13;7.30;99.90
2571;DHT22;1295;51.130;6.732;2023-02-12T09:38:42;7.20;99.90
2571;DHT22;1295;51.130;6.732;2023-02-12T09:41:22;7.20;99.90
2571;DHT22;1295;51.130;6.732;2023-02-12T09:43:43;7.20;99.90
2571;DHT22;1295;51.130;6.732;2023-02-12T09:46:15;7.30;99.90
2571;DHT22;1295;51.130;6.732;2023-02-12T09:48:47;7.30;99.90
2571;DHT22;1295;51.130;6.732;2023-02-12T09:51:09;7.30;99.90
2571;DHT22;1295;51.130;6.732;2023-02-12T09:53:37;7.20;99.90
2571;DHT22;1295;51.130;6.732;2023-02-12T09:56:01;7.20;99.90
2571;DHT22;1295;51.130;6.732;2023-02-12T09:58:32;7.20;99.90
2571;DHT22;1295;51.130;6.732;2023-02-12T10:00:57;7.20;99.90
2571;DHT22;1295;51.130;6.732;2023-02-12T10:03:23;7.20;99.90
2571;DHT22;1295;51.130;6.732;2023-02-12T10:05:52;7.20;99.90
2571;DHT22;1295;51.130;6.732;2023-02-12T10:11:18;7.30;99.90
2571;DHT22;1295;51.130;6.732;2023-02-12T10:13:55;7.40;99.90
2571;DHT22;1295;51.130;6.732;2023-02-12T10:16:35;7.50;99.90
2571;DHT22;1295;51.130;6.732;2023-02-12T10:19:11;7.50;99.90
2571;DHT22;1295;51.130;6.732;2023-02-12T10:24:17;7.30;99.90
2571;DHT22;1295;51.130;6.732;2023-02-12T10:26:43;7.40;99.90
2571;DHT22;1295;51.130;6.732;2023-02-12T10:29:12;7.40;99.90
2571;DHT22;1295;51.130;6.732;2023-02-12T10:31:37;7.30;99.90
2571;DHT22;1295;51.130;6.732;2023-02-12T10:34:20;7.30;99.90
2571;DHT22;1295;51.130;6.732;2023-02-12T10:36:45;7.30;99.90
2571;DHT22;1295;51.130;6.732;2023-02-12T10:39:20;7.40;99.90
2571;DHT22;1295;51.130;6.732;2023-02-12T10:41:46;7.40;99.90
2571;DHT22;1295;51.130;6.732;2023-02-12T10:44:10;7.40;99.90
2571;DHT22;1295;51.130;6.732;2023-02-12T10:46:35;7.40;99.90
2571;DHT22;1295;51.130;6.732;2023-02-12T10:49:01;7.40;99.90
2571;DHT22;1295;51.130;6.732;2023-02-12T10:54:30;7.40;99.90
2571;DHT22;1295;51.130;6.732;2023-02-12T10:56:26;7.50;99.90
2571;DHT22;1295;51.130;6.732;2023-02-12T10:58:53;7.40;99.90
2571;DHT22;1295;51.130;6.732;2023-02-12T11:01:29;7.40;99.90
2571;DHT22;1295;51.130;6.732;2023-02-12T11:03:55;7.50;99.90
2571;DHT22;1295;51.130;6.732;2023-02-12T11:06:22;7.50;99.90
2571;DHT22;1295;51.130;6.732;2023-02-12T11:08:47;7.90;99.90
2571;DHT22;1295;51.130;6.732;2023-02-12T11:11:15;7.90;99.90
2571;DHT22;1295;51.130;6.732;2023-02-12T11:13:40;7.60;99.90
2571;DHT22;1295;51.130;6.732;2023-02-12T11:16:05;7.70;99.90
2571;DHT22;1295;51.130;6.732;2023-02-12T11:18:31;7.60;99.90
2571;DHT22;1295;51.130;6.732;2023-02-12T11:21:10;7.70;99.90
2571;DHT22;1295;51.130;6.732;2023-02-12T11:23:37;7.70;99.90
2571;DHT22;1295;51.130;6.732;2023-02-12T11:26:05;7.60;99.90
2571;DHT22;1295;51.130;6.732;2023-02-12T11:28:31;7.70;99.90
2571;DHT22;1295;51.130;6.732;2023-02-12T11:30:58;7.80;99.90
2571;DHT22;1295;51.130;6.732;2023-02-12T11:33:26;7.80;99.90
2571;DHT22;1295;51.130;6.732;2023-02-12T11:35:52;7.90;99.90
2571;DHT22;1295;51.130;6.732;2023-02-12T11:38:23;7.90;99.90
2571;DHT22;1295;51.130;6.732;2023-02-12T11:40:46;8.20;99.90
2571;DHT22;1295;51.130;6.732;2023-02-12T11:43:13;8.10;99.90
2571;DHT22;1295;51.130;6.732;2023-02-12T11:45:45;8.10;99.90
2571;DHT22;1295;51.130;6.732;2023-02-12T11:48:14;8.30;99.90
2571;DHT22;1295;51.130;6.732;2023-02-12T11:50:35;8.20;99.90
2571;DHT22;1295;51.130;6.732;2023-02-12T11:53:03;8.10;99.90
2571;DHT22;1295;51.130;6.732;2023-02-12T11:55:29;8.30;99.90
2571;DHT22;1295;51.130;6.732;2023-02-12T11:58:16;8.30;99.90
2571;DHT22;1295;51.130;6.732;2023-02-12T12:00:45;8.20;99.90
2571;DHT22;1295;51.130;6.732;2023-02-12T12:03:12;7.90;99.90
2571;DHT22;1295;51.130;6.732;2023-02-12T12:05:39;7.70;99.90
2571;DHT22;1295;51.130;6.732;2023-02-12T12:08:05;7.60;99.90
2571;DHT22;1295;51.130;6.732;2023-02-12T12:10:33;7.70;99.90
2571;DHT22;1295;51.130;6.732;2023-02-12T12:12:57;7.90;99.90
2571;DHT22;1295;51.130;6.732;2023-02-12T12:15:26;8.00;99.90
2571;DHT22;1295;51.130;6.732;2023-02-12T12:17:59;8.10;99.90
2571;DHT22;1295;51.130;6.732;2023-02-12T12:20:31;8.00;99.90
2571;DHT22;1295;51.130;6.732;2023-02-12T12:23:06;8.10;99.90
2571;DHT22;1295;51.130;6.732;2023-02-12T12:25:30;8.10;99.90
2571;DHT22;1295;51.130;6.732;2023-02-12T12:28:16;7.80;99.90
2571;DHT22;1295;51.130;6.732;2023-02-12T12:30:56;7.90;99.90
2571;DHT22;1295;51.130;6.732;2023-02-12T12:33:25;8.20;99.90
2571;DHT22;1295;51.130;6.732;2023-02-12T12:44:08;7.90;99.90
2571;DHT22;1295;51.130;6.732;2023-02-12T12:46:49;7.70;99.90
2571;DHT22;1295;51.130;6.732;2023-02-12T12:50:02;7.70;99.90
2571;DHT22;1295;51.130;6.732;2023-02-12T12:52:50;8.20;99.90
2571;DHT22;1295;51.130;6.732;2023-02-12T13:00:20;8.00;99.90
2571;DHT22;1295;51.130;6.732;2023-02-12T13:03:04;8.00;99.90
2571;DHT22;1295;51.130;6.732;2023-02-12T13:05:53;8.30;99.90
2571;DHT22;1295;51.130;6.732;2023-02-12T13:09:02;8.00;99.90
2571;DHT22;1295;51.130;6.732;2023-02-12T13:11:12;7.90;99.90
2571;DHT22;1295;51.130;6.732;2023-02-12T13:13:35;8.30;99.90
2571;DHT22;1295;51.130;6.732;2023-02-12T13:16:20;8.60;99.90
2571;DHT22;1295;51.130;6.732;2023-02-12T13:18:52;8.40;99.90
2571;DHT22;1295;51.130;6.732;2023-02-12T13:21:17;8.40;99.90
2571;DHT22;1295;51.130;6.732;2023-02-12T13:23:52;8.80;99.90
2571;DHT22;1295;51.130;6.732;2023-02-12T13:26:25;8.90;99.90
2571;DHT22;1295;51.130;6.732;2023-02-12T13:28:52;8.80;99.90
2571;DHT22;1295;51.130;6.732;2023-02-12T13:31:18;8.70;99.90
2571;DHT22;1295;51.130;6.732;2023-02-12T13:33:46;8.50;99.90
2571;DHT22;1295;51.130;6.732;2023-02-12T13:36:10;8.20;99.90
2571;DHT22;1295;51.130;6.732;2023-02-12T13:38:37;7.90;99.90
2571;DHT22;1295;51.130;6.732;2023-02-12T13:41:02;7.90;99.90
2571;DHT22;1295;51.130;6.732;2023-02-12T13:43:51;7.90;99.90
2571;DHT22;1295;51.130;6.732;2023-02-12T13:46:17;8.10;99.90
2571;DHT22;1295;51.130;6.732;2023-02-12T13:51:45;8.00;99.90
2571;DHT22;1295;51.130;6.732;2023-02-12T13:54:19;8.50;99.90
2571;DHT22;1295;51.130;6.732;2023-02-12T13:56:46;8.50;99.90
2571;DHT22;1295;51.130;6.732;2023-02-12T13:59:45;8.50;99.90
2571;DHT22;1295;51.130;6.732;2023-02-12T14:02:39;8.70;99.90
2571;DHT22;1295;51.130;6.732;2023-02-12T14:04:55;8.70;99.90
2571;DHT22;1295;51.130;6.732;2023-02-12T14:07:20;8.80;99.90
2571;DHT22;1295;51.130;6.732;2023-02-12T14:10:05;8.70;99.90
2571;DHT22;1295;51.130;6.732;2023-02-12T14:12:31;8.60;99.90
2571;DHT22;1295;51.130;6.732;2023-02-12T14:15:04;8.30;99.90
2571;DHT22;1295;51.130;6.732;2023-02-12T14:17:52;8.40;99.90
2571;DHT22;1295;51.130;6.732;2023-02-12T14:20:28;8.70;99.90
2571;DHT22;1295;51.130;6.732;2023-02-12T14:23:01;8.70;99.90
2571;DHT22;1295;51.130;6.732;2023-02-12T14:25:28;8.50;99.90
2571;DHT22;1295;51.130;6.732;2023-02-12T14:27:53;8.30;99.90
2571;DHT22;1295;51.130;6.732;2023-02-12T14:30:24;8.70;99.90
2571;DHT22;1295;51.130;6.732;2023-02-12T14:33:10;8.70;99.90
2571;DHT22;1295;51.130;6.732;2023-02-12T14:35:37;8.40;99.90
2571;DHT22;1295;51.130;6.732;2023-02-12T14:38:07;8.30;99.90
2571;DHT22;1295;51.130;6.732;2023-02-12T14:40:29;8.10;99.90
2571;DHT22;1295;51.130;6.732;2023-02-12T14:42:54;8.20;99.90
2571;DHT22;1295;51.130;6.732;2023-02-12T14:45:34;8.20;99.90
2571;DHT22;1295;51.130;6.732;2023-02-12T14:47:59;8.20;99.90
2571;DHT22;1295;51.130;6.732;2023-02-12T14:50:25;8.20;99.90
2571;DHT22;1295;51.130;6.732;2023-02-12T14:52:51;8.10;99.90
2571;DHT22;1295;51.130;6.732;2023-02-12T14:55:23;8.20;99.90
2571;DHT22;1295;51.130;6.732;2023-02-12T14:57:47;8.30;99.90
2571;DHT22;1295;51.130;6.732;2023-02-12T15:03:18;8.20;99.90
2571;DHT22;1295;51.130;6.732;2023-02-12T15:05:52;8.30;99.90
2571;DHT22;1295;51.130;6.732;2023-02-12T15:08:23;8.30;99.90
2571;DHT22;1295;51.130;6.732;2023-02-12T15:10:46;8.30;99.90
2571;DHT22;1295;51.130;6.732;2023-02-12T15:13:14;8.20;99.90
2571;DHT22;1295;51.130;6.732;2023-02-12T15:15:42;8.30;99.90
2571;DHT22;1295;51.130;6.732;2023-02-12T15:18:29;8.40;99.90
2571;DHT22;1295;51.130;6.732;2023-02-12T15:20:55;8.40;99.90
2571;DHT22;1295;51.130;6.732;2023-02-12T15:23:33;8.40;99.90
2571;DHT22;1295;51.130;6.732;2023-02-12T15:25:58;8.20;99.90
2571;DHT22;1295;51.130;6.732;2023-02-12T15:28:26;8.20;99.90
2571;DHT22;1295;51.130;6.732;2023-02-12T15:30:49;8.20;99.90
2571;DHT22;1295;51.130;6.732;2023-02-12T15:33:20;8.40;99.90
2571;DHT22;1295;51.130;6.732;2023-02-12T15:35:43;8.40;99.90
2571;DHT22;1295;51.130;6.732;2023-02-12T15:38:08;8.40;99.90
2571;DHT22;1295;51.130;6.732;2023-02-12T15:40:33;8.40;99.90
2571;DHT22;1295;51.130;6.732;2023-02-12T15:43:00;8.40;99.90
2571;DHT22;1295;51.130;6.732;2023-02-12T15:45:25;8.30;99.90
2571;DHT22;1295;51.130;6.732;2023-02-12T15:47:56;8.30;99.90
2571;DHT22;1295;51.130;6.732;2023-02-12T15:50:21;8.30;99.90
2571;DHT22;1295;51.130;6.732;2023-02-12T15:52:46;8.40;99.90
2571;DHT22;1295;51.130;6.732;2023-02-12T15:55:16;8.30;99.90
2571;DHT22;1295;51.130;6.732;2023-02-12T15:57:40;8.40;99.90
2571;DHT22;1295;51.130;6.732;2023-02-12T16:00:08;8.40;99.90
2571;DHT22;1295;51.130;6.732;2023-02-12T16:02:33;8.50;99.90
2571;DHT22;1295;51.130;6.732;2023-02-12T16:04:59;8.50;99.90
2571;DHT22;1295;51.130;6.732;2023-02-12T16:07:25;8.40;99.90
2571;DHT22;1295;51.130;6.732;2023-02-12T16:09:51;8.40;99.90
2571;DHT22;1295;51.130;6.732;2023-02-12T16:12:18;8.40;99.90
2571;DHT22;1295;51.130;6.732;2023-02-12T16:14:47;8.20;99.90
2571;DHT22;1295;51.130;6.732;2023-02-12T16:17:21;8.20;99.90
2571;DHT22;1295;51.130;6.732;2023-02-12T16:22:17;8.20;99.90
2571;DHT22;1295;51.130;6.732;2023-02-12T16:24:45;8.10;99.90
2571;DHT22;1295;51.130;6.732;2023-02-12T16:27:24;8.10;99.90
2571;DHT22;1295;51.130;6.732;2023-02-12T16:29:51;8.20;99.90
2571;DHT22;1295;51.130;6.732;2023-02-12T16:32:30;8.20;99.90
2571;DHT22;1295;51.130;6.732;2023-02-12T16:35:01;8.30;99.90
2571;DHT22;1295;51.130;6.732;2023-02-12T16:40:21;8.40;99.90
2571;DHT22;1295;51.130;6.732;2023-02-12T16:43:02;8.40;99.90
2571;DHT22;1295;51.130;6.732;2023-02-12T16:45:35;8.20;99.90
2571;DHT22;1295;51.130;6.732;2023-02-12T16:48:08;8.30;99.90
2571;DHT22;1295;51.130;6.732;2023-02-12T16:50:32;8.30;99.90
2571;DHT22;1295;51.130;6.732;2023-02-12T16:52:58;8.40;99.90
2571;DHT22;1295;51.130;6.732;2023-02-12T16:55:23;8.40;99.90
2571;DHT22;1295;51.130;6.732;2023-02-12T16:57:49;8.40;99.90
2571;DHT22;1295;51.130;6.732;2023-02-12T17:00:15;8.40;99.90
2571;DHT22;1295;51.130;6.732;2023-02-12T17:02:41;8.30;99.90
2571;DHT22;1295;51.130;6.732;2023-02-12T17:05:06;8.40;99.90